1866 NOT_NAMED (1866001S13066)


IBTrACS version v04r00. Visit IBTrACS website for data access.
Please direct all questions to the IBTrACS Q and A forum

Storm track - Intensity - Wind Radii - Intensity Data - Source Data - All data

Summary Information

Storm ID 1866001S13066
Start Jan 1 06Z
End Jan 9 06Z
ATCF IDs
Track status Best track data.

Storm track plot

Map of storm track

Intensity plots

No Intensity information for this storm


Radial wind information

No radial wind information for this storm


Position and Intensity Table

BASIN ISO_TIME_________ NATURE LAT LON
degrees north degrees east
SI 1866-01-01 06:00:00 NR -12.80 66.10
SI 09:00:00 NR -12.99 66.04
SI 12:00:00 NR -13.19 65.98
SI 15:00:00 NR -13.40 65.92
SI 18:00:00 NR -13.63 65.86
SI 21:00:00 NR -13.88 65.80
SI 1866-01-02 00:00:00 NR -14.16 65.73
SI 03:00:00 NR -14.47 65.66
SI 06:00:00 NR -14.80 65.60
SI 09:00:00 NR -15.17 65.54
SI 12:00:00 NR -15.56 65.49
SI 15:00:00 NR -15.96 65.43
SI 18:00:00 NR -16.37 65.39
SI 21:00:00 NR -16.79 65.34
SI 1866-01-03 00:00:00 NR -17.21 65.30
SI 03:00:00 NR -17.60 65.27
SI 06:00:00 NR -17.95 65.25
SI 09:00:00 NR -18.25 65.26
SI 12:00:00 NR -18.52 65.28
SI 15:00:00 NR -18.77 65.31
SI 18:00:00 NR -18.99 65.34
SI 21:00:00 NR -19.21 65.35
SI 1866-01-04 00:00:00 NR -19.41 65.37
SI 03:00:00 NR -19.59 65.38
SI 06:00:00 NR -19.75 65.40
SI 09:00:00 NR -19.89 65.42
SI 12:00:00 NR -20.02 65.43
SI 15:00:00 NR -20.14 65.46
SI 18:00:00 NR -20.25 65.49
SI 21:00:00 NR -20.35 65.52
SI 1866-01-05 00:00:00 NR -20.44 65.56
SI 03:00:00 NR -20.54 65.60
SI 06:00:00 NR -20.65 65.65
SI 09:00:00 NR -20.78 65.71
SI 12:00:00 NR -20.91 65.77
SI 15:00:00 NR -21.04 65.83
SI 18:00:00 NR -21.17 65.89
SI 21:00:00 NR -21.29 65.94
SI 1866-01-06 00:00:00 NR -21.42 65.99
SI 03:00:00 NR -21.54 66.04
SI 06:00:00 NR -21.65 66.10
SI 09:00:00 NR -21.76 66.16
SI 12:00:00 NR -21.87 66.23
SI 15:00:00 NR -21.97 66.30
SI 18:00:00 NR -22.08 66.37
SI 21:00:00 NR -22.20 66.44
SI 1866-01-07 00:00:00 NR -22.26 66.46
SI 03:00:00 NR -22.32 66.47
SI 06:00:00 NR -22.34 66.44
SI 09:00:00 NR -22.31 66.36
SI 12:00:00 NR -22.40 66.42
SI 15:00:00 NR -22.49 66.48
SI 18:00:00 NR -22.58 66.54
SI 21:00:00 NR -22.66 66.60
SI 1866-01-08 00:00:00 NR -22.74 66.67
SI 03:00:00 NR -22.82 66.73
SI 06:00:00 NR -22.90 66.80
SI 09:00:00 NR -22.98 66.87
SI 12:00:00 NR -23.07 66.94
SI 15:00:00 NR -23.15 67.01
SI 18:00:00 NR -23.24 67.09
SI 21:00:00 NR -23.33 67.17
SI 1866-01-09 00:00:00 NR -23.42 67.24
SI 03:00:00 NR -23.51 67.32
SI 06:00:00 NR -23.60 67.40

Source Information

Agency Information
USA
TOKYO
CMA
HKO
NEWDELHI
REUNION WMO-Best-Tracks.txt:Line=630:xxxx866091
BOM
NADI
WELLINGTON
DS824
TD9636 cons_worldwide_trop_cyclone_18710101-19891231-005:Line=845
TD9635
NEUMANN
MLC

All available IBTrACS Data

SEASON BASIN SUBBASIN ISO_TIME_________ NATURE LAT LON WMO AGENCY DIST2LAND LANDFALL IFLAG USA SSHS REUNION LAT REUNION LON REUNION TYPE REUNION TNUM TD9636 LAT TD9636 LON TD9636 STAGE STORM SPEED STORM DIR
Year degrees north degrees east km km 1 degrees north degrees east 1 degrees north degrees east kts degrees
1866 SI MM 1866-01-01 06:00:00 NR -12.80 66.10 reunion 1211 1188 _____O____O___ -1 -12.40 66.20 99 9.90 -13.20 66.00 7 4 197
1866 SI MM 09:00:00 NR -12.99 66.04 1188 1173 _____P____P___ -1 -12.39 66.19 99 -13.59 65.90 7 4 196
1866 SI MM 12:00:00 NR -13.19 65.98 1173 1150 _____P____P___ -1 -12.40 66.17 99 -13.99 65.80 7 4 196
1866 SI MM 15:00:00 NR -13.40 65.92 1150 1135 _____P____P___ -1 -12.42 66.15 99 -14.39 65.70 7 5 195
1866 SI MM 18:00:00 NR -13.63 65.86 1135 1105 _____P____O___ -1 -12.46 66.12 99 -14.80 65.60 7 5 194
1866 SI MM 21:00:00 NR -13.88 65.80 1105 1083 _____P____P___ -1 -12.55 66.08 99 -15.22 65.51 7 5 193
1866 SI MM 1866-01-02 00:00:00 NR -14.16 65.73 1076 1062 _____P____P___ -1 -12.68 66.04 99 -15.65 65.42 7 6 192
1866 SI MM 03:00:00 NR -14.47 65.66 1055 1026 _____P____P___ -1 -12.86 65.98 99 -16.08 65.35 7 7 191
1866 SI MM 06:00:00 NR -14.80 65.60 reunion 1026 998 _____O____O___ -1 -13.10 65.90 99 9.90 -16.50 65.30 7 7 190
1866 SI MM 09:00:00 NR -15.17 65.54 991 972 _____P____P___ -1 -13.41 65.81 99 -16.92 65.27 7 8 188
1866 SI MM 12:00:00 NR -15.56 65.49 966 940 _____P____P___ -1 -13.78 65.70 99 -17.33 65.27 7 8 187
1866 SI MM 15:00:00 NR -15.96 65.43 934 917 _____P____P___ -1 -14.20 65.59 99 -17.73 65.28 7 8 187
1866 SI MM 18:00:00 NR -16.37 65.39 912 882 _____P____O___ -1 -14.64 65.47 99 -18.10 65.30 7 8 186
1866 SI MM 21:00:00 NR -16.79 65.34 882 862 _____P____P___ -1 -15.11 65.36 99 -18.48 65.31 7 8 186
1866 SI MM 1866-01-03 00:00:00 NR -17.21 65.30 862 844 _____P____P___ -1 -15.58 65.26 99 -18.83 65.33 7 8 185
1866 SI MM 03:00:00 NR -17.60 65.27 844 832 _____P____P___ -1 -16.05 65.17 99 -19.14 65.36 7 7 184
1866 SI MM 06:00:00 NR -17.95 65.25 reunion 832 818 _____O____O___ -1 -16.50 65.10 99 9.90 -19.40 65.40 7 7 0
1866 SI MM 09:00:00 NR -18.25 65.26 818 811 _____P____P___ -1 -16.91 65.07 99 -19.59 65.45 7 6 177
1866 SI MM 12:00:00 NR -18.52 65.28 811 803 _____P____P___ -1 -17.32 65.06 99 -19.73 65.51 7 5 177
1866 SI MM 15:00:00 NR -18.77 65.31 803 798 _____P____P___ -1 -17.71 65.06 99 -19.82 65.56 7 5 173
1866 SI MM 18:00:00 NR -18.99 65.34 798 796 _____P____O___ -1 -18.09 65.07 99 -19.90 65.60 7 4 175
1866 SI MM 21:00:00 NR -19.21 65.35 804 801 _____P____P___ -1 -18.44 65.10 99 -19.99 65.61 7 4 176
1866 SI MM 1866-01-04 00:00:00 NR -19.41 65.37 801 798 _____P____P___ -1 -18.76 65.13 99 -20.06 65.61 7 4 0
1866 SI MM 03:00:00 NR -19.59 65.38 798 796 _____P____P___ -1 -19.05 65.17 99 -20.13 65.60 7 3 174
1866 SI MM 06:00:00 NR -19.75 65.40 reunion 796 794 _____O____O___ -1 -19.30 65.20 99 9.90 -20.20 65.60 7 3 173
1866 SI MM 09:00:00 NR -19.89 65.42 794 793 _____P____P___ -1 -19.50 65.22 99 -20.29 65.61 7 3 171
1866 SI MM 12:00:00 NR -20.02 65.43 793 793 _____P____P___ -1 -19.66 65.23 99 -20.38 65.64 7 2 171
1866 SI MM 15:00:00 NR -20.14 65.46 803 803 _____P____P___ -1 -19.79 65.26 99 -20.49 65.66 7 2 165
1866 SI MM 18:00:00 NR -20.25 65.49 803 802 _____P____O___ -1 -19.89 65.28 99 -20.60 65.70 7 2 166
1866 SI MM 21:00:00 NR -20.35 65.52 802 802 _____P____P___ -1 -19.98 65.30 99 -20.71 65.74 7 2 161
1866 SI MM 1866-01-05 00:00:00 NR -20.44 65.56 813 813 _____P____P___ -1 -20.05 65.33 99 -20.83 65.79 7 2 158
1866 SI MM 03:00:00 NR -20.54 65.60 813 813 _____P____P___ -1 -20.12 65.36 99 -20.96 65.84 7 2 157
1866 SI MM 06:00:00 NR -20.65 65.65 reunion 823 823 _____O____O___ -1 -20.20 65.40 99 9.90 -21.10 65.90 7 3 157
1866 SI MM 09:00:00 NR -20.78 65.71 824 824 _____P____P___ -1 -20.31 65.44 99 -21.25 65.97 7 3 157
1866 SI MM 12:00:00 NR -20.91 65.77 835 835 _____P____P___ -1 -20.42 65.48 99 -21.40 66.05 7 3 156
1866 SI MM 15:00:00 NR -21.04 65.83 835 835 _____P____P___ -1 -20.53 65.53 99 -21.55 66.13 7 3 156
1866 SI MM 18:00:00 NR -21.17 65.89 848 848 _____P____O___ -1 -20.63 65.58 99 -21.70 66.20 7 3 158
1866 SI MM 21:00:00 NR -21.29 65.94 849 849 _____P____P___ -1 -20.75 65.63 99 -21.84 66.25 7 3 158
1866 SI MM 1866-01-06 00:00:00 NR -21.42 65.99 860 860 _____P____P___ -1 -20.86 65.68 99 -21.97 66.30 7 3 157
1866 SI MM 03:00:00 NR -21.54 66.04 862 862 _____P____P___ -1 -20.98 65.74 99 -22.09 66.35 7 3 157
1866 SI MM 06:00:00 NR -21.65 66.10 reunion 873 875 _____O____O___ -1 -21.10 65.80 99 9.90 -22.20 66.40 7 3 154
1866 SI MM 09:00:00 NR -21.76 66.16 887 887 _____P____P___ -1 -21.24 65.86 99 -22.29 66.47 7 2 152
1866 SI MM 12:00:00 NR -21.87 66.23 889 889 _____P____P___ -1 -21.38 65.92 99 -22.36 66.54 7 2 149
1866 SI MM 15:00:00 NR -21.97 66.30 901 901 _____P____P___ -1 -21.52 65.98 99 -22.43 66.62 7 3 148
1866 SI MM 18:00:00 NR -22.08 66.37 913 913 _____P____O___ -1 -21.66 66.04 99 -22.50 66.70 7 3 150
1866 SI MM 21:00:00 NR -22.20 66.44 915 915 _____P____P___ -1 -21.81 66.11 99 -22.59 66.78 7 2 153
1866 SI MM 1866-01-07 00:00:00 NR -22.26 66.46 928 928 _____P____P___ -1 -21.95 66.17 99 -22.69 66.85 7 1 173
1866 SI MM 03:00:00 NR -22.32 66.47 928 918 _____P____P___ -1 -22.08 66.24 99 -22.79 66.93 7 1 192
1866 SI MM 06:00:00 NR -22.34 66.44 reunion 918 918 _____O____O___ -1 -22.20 66.30 99 9.90 -22.90 67.00 7 1 275
1866 SI MM 09:00:00 NR -22.31 66.36 918 918 _____P________ -1 -22.31 66.36 99 7 1 202
1866 SI MM 12:00:00 NR -22.40 66.42 920 920 _____P________ -1 -22.40 66.42 99 7 2 149
1866 SI MM 15:00:00 NR -22.49 66.48 933 933 _____P________ -1 -22.49 66.48 99 7 2 147
1866 SI MM 18:00:00 NR -22.58 66.54 935 935 _____P________ -1 -22.58 66.54 99 2 146
1866 SI MM 21:00:00 NR -22.66 66.60 948 948 _____P________ -1 -22.66 66.60 99 2 143
1866 SI MM 1866-01-08 00:00:00 NR -22.74 66.67 958 958 _____P________ -1 -22.74 66.67 99 2 143
1866 SI MM 03:00:00 NR -22.82 66.73 961 961 _____P________ -1 -22.82 66.73 99 2 143
1866 SI MM 06:00:00 NR -22.90 66.80 reunion 974 974 _____O________ -1 -22.90 66.80 99 9.90 2 142
1866 SI MM 09:00:00 NR -22.98 66.87 987 987 _____P________ -1 -22.98 66.87 99 2 141
1866 SI MM 12:00:00 NR -23.07 66.94 990 990 _____P________ -1 -23.07 66.94 99 2 142
1866 SI MM 15:00:00 NR -23.15 67.01 1003 1003 _____P________ -1 -23.15 67.01 99 2 142
1866 SI MM 18:00:00 NR -23.24 67.09 1013 1013 _____P________ -1 -23.24 67.09 99 2 142
1866 SI MM 21:00:00 NR -23.33 67.17 1026 1026 _____P________ -1 -23.33 67.17 99 2 142
1866 SI MM 1866-01-09 00:00:00 NR -23.42 67.24 1029 1029 _____P________ -1 -23.42 67.24 99 2 141
1866 SI MM 03:00:00 NR -23.51 67.32 1042 1042 _____P________ -1 -23.51 67.32 99 2 142
1866 SI MM 06:00:00 NR -23.60 67.40 reunion 1055 _____O________ -1 -23.60 67.40 99 9.90 2 144